This is the latest recevied weather packets stored in our database for station/object OM2RC-6. If no packets are shown the sender has not sent any weather packets the latest 10 day(s).
| Time | Temp. | Humidity | Pressure | Rain* | Wind** | Luminosity | Snow |
|---|---|---|---|---|---|---|---|
| 1777457157 | 13.89° C | 30% | 1024.5 hPa | - | - | - | - |
| 1777455652 | 13.89° C | 32% | 1024.7 hPa | - | - | - | - |
| 1777455351 | 13.89° C | 34% | 1024.7 hPa | - | - | - | - |
| 1777455050 | 13.33° C | 33% | 1024.8 hPa | - | - | - | - |
| 1777454749 | 15.56° C | 31% | 1024.8 hPa | - | - | - | - |
| 1777454449 | 14.44° C | 33% | 1025 hPa | - | - | - | - |
| 1777454148 | 13.89° C | 35% | 1025 hPa | - | - | - | - |
| 1777453847 | 13.33° C | 35% | 1025.1 hPa | - | - | - | - |
| 1777453546 | 12.22° C | 35% | 1025.1 hPa | - | - | - | - |
| 1777453245 | 13.33° C | 35% | 1025.1 hPa | - | - | - | - |
| 1777452944 | 12.22° C | 37% | 1025.1 hPa | - | - | - | - |
| 1777452342 | 13.89° C | 35% | 1025 hPa | - | - | - | - |
| 1777452040 | 16.11° C | 34% | 1025 hPa | - | - | - | - |
| 1777451738 | 13.89° C | 37% | 1025.2 hPa | - | - | - | - |
| 1777451437 | 12.22° C | 37% | 1025.2 hPa | - | - | - | - |
| 1777451136 | 11.67° C | 39% | 1025.1 hPa | - | - | - | - |
| 1777450835 | 12.22° C | 38% | 1025.1 hPa | - | - | - | - |
| 1777450534 | 12.78° C | 38% | 1025.1 hPa | - | - | - | - |
| 1777450233 | 13.33° C | 38% | 1025.2 hPa | - | - | - | - |
| 1777449931 | 12.22° C | 39% | 1025.2 hPa | - | - | - | - |
| 1777449631 | 13.33° C | 39% | 1025.2 hPa | - | - | - | - |
| 1777449330 | 12.22° C | 40% | 1025.1 hPa | - | - | - | - |
| 1777448407 | 11.67° C | 42% | 1025.2 hPa | - | - | - | - |
| 1777448106 | 11.11° C | 46% | 1025.1 hPa | - | - | - | - |
| 1777447805 | 11.11° C | 45% | 1025.2 hPa | - | - | - | - |
* Rain since midnight (hover to see other rain measurements)
** Current wind speed in m/s (hover to see current wind gust speed)